Latest Coastal Weather Observations for Milingimbi

IDD60701

Issued at 8:41 pm CST Friday 6 March 2015 (issued every 10 minutes, with the page automatically refreshed every 10 minutes)

About coastal observations | Map of coastal stations | Coastal observations for NT | Marine services | Other Formats
Station Details ID: 014404 Name: MILINGIMBI AIRPORT Lat: -12.09 Lon: 134.89 Height: 15.0 m
Data from the previous 72 hours. | See also: Recent months at Milingimbi
Date/Time
CST
Temp

°C
Wind Pressure Rain
since 9am
mm
Weather Cloud Vis
km
Sea
Height
m
Swell
Dir
 
Speed
knots
Gust
knots
hPa Trend Height
m
Period
s
Dir
06/08:30pm 28.1 WNW 4 5 1006.5 - 1.4 - - - - - - -
06/08:00pm 28.2 NNW 5 7 1006.4 - 1.4 - - - - - - -
06/07:30pm 27.9 NW 5 7 1005.4 - 1.4 - - - - - - -
06/07:00pm 28.9 NNW 4 6 1005.3 - 1.0 - - - - - - -
06/06:30pm 28.8 NNW 4 7 1004.9 - 1.0 - - - - - - -
06/06:00pm 28.7 NNW 4 6 1004.7 - 1.0 - - - - - - -
06/05:30pm 28.1 N 5 7 1004.5 - 1.0 - - - - - - -
06/05:00pm 27.7 NNE 8 13 1004.7 - 1.0 - - - - - - -
06/04:30pm 27.5 E 11 15 1005.5 - 1.0 - - - - - - -
06/04:00pm 29.6 N 4 7 1005.1 - 0.6 - - - - - - -
06/03:30pm 31.3 WNW 9 16 1005.0 - 0.4 - - - - - - -
06/03:00pm 32.1 NW 8 13 1004.6 - 0.4 - - - - - - -
06/02:30pm 32.5 NNW 9 14 1005.0 - 0.4 - - - - - - -
06/02:00pm 32.6 NNW 8 14 1005.5 - 0.4 - - - - - - -
06/01:30pm 32.2 NW 10 13 1006.0 - 0.4 - - - - - - -
06/01:00pm 32.0 NW 8 13 1006.4 - 0.4 - - - - - - -
06/12:30pm 30.6 NW 8 10 1007.0 - 0.4 - - - - - - -
06/12:00pm 31.4 NNW 6 8 1007.2 - 0.4 - - - - - - -
06/11:30am 28.4 N 5 9 1007.8 - 0.4 - - - - - - -
06/11:00am 30.4 W 8 11 1007.6 - 0.0 - - - - - - -
06/10:30am 30.4 NNW 6 8 1007.7 - 0.0 - - - - - - -
06/10:00am 29.8 WNW 7 10 1007.7 - 0.0 - - - - - - -
06/09:30am 29.6 NW 8 11 1007.6 - 0.0 - - - - - - -
06/09:00am 29.5 WNW 6 8 1007.4 - 0.0 - - - - - - -
06/08:30am 28.6 W 6 8 1007.1 - 0.0 - - - - - - -
06/08:00am 27.6 W 5 7 1007.1 - 0.0 - - - - - - -
06/07:30am 26.9 W 3 5 1006.9 - 0.0 - - - - - - -
06/07:00am 26.0 W 4 4 1006.7 - 0.0 - - - - - - -
06/06:30am 25.7 CALM 0 0 1006.7 - 0.0 - - - - - - -
06/06:00am 25.7 SSW 3 4 1006.6 - 0.0 - - - - - - -
06/05:30am 25.7 S 4 5 1006.7 - 0.0 - - - - - - -
06/05:00am 25.8 S 5 6 1006.6 - 0.0 - - - - - - -
06/04:30am 25.9 CALM 0 0 1006.7 - 0.0 - - - - - - -
06/04:00am 26.0 S 2 3 1006.9 - 0.0 - - - - - - -
06/03:30am 26.0 SSW 5 6 1007.0 - 0.0 - - - - - - -
06/03:00am 26.1 SSW 2 4 1006.8 - 0.0 - - - - - - -
06/02:30am 26.1 CALM 0 0 1007.2 - 0.0 - - - - - - -
06/02:00am 26.2 SW 1 4 1007.5 - 0.0 - - - - - - -
06/01:30am 26.3 SW 2 4 1007.8 - 0.0 - - - - - - -
06/01:00am 26.5 CALM 0 0 1008.1 - 0.0 - - - - - - -
06/12:30am 26.7 CALM 0 0 1008.4 - 0.0 - - - - - - -
06/12:00am 26.9 CALM 0 0 1008.8 - 0.0 - - - - - - -
 
Date/Time
CST
Temp

°C
Wind Pressure Rain
since 9am
mm
Weather Cloud Vis
km
Sea
Height
m
Swell
Dir
 
Speed
knots
Gust
knots
hPa Trend Height
m
Period
s
Dir
05/11:30pm 27.2 CALM 0 0 1009.1 - 0.0 - - - - - - -
05/11:00pm 27.6 NW 1 3 1009.2 - 0.0 - - - - - - -
05/10:30pm 27.6 CALM 0 0 1009.1 - 0.0 - - - - - - -
05/10:00pm 27.7 CALM 0 0 1008.6 - 0.0 - - - - - - -
05/09:30pm 27.6 NNW 3 4 1008.2 - 0.0 - - - - - - -
05/09:00pm 28.1 N 1 4 1008.0 - 0.0 - - - - - - -
05/08:30pm 27.8 N 1 4 1007.6 - 0.0 - - - - - - -
05/08:00pm 27.9 NNW 3 4 1007.3 - 0.0 - - - - - - -
05/07:30pm 27.8 N 4 5 1007.1 - 0.0 - - - - - - -
05/07:00pm 28.0 W 4 6 1006.8 - 0.0 - - - - - - -
05/06:30pm 28.0 WSW 5 7 1006.6 - 0.0 - - - - - - -
05/06:00pm 28.1 SW 8 12 1006.4 - 0.0 - - - - - - -
05/05:30pm 30.1 N 8 12 1006.0 - 0.0 - - - - - - -
05/05:00pm 30.6 NNW 10 14 1005.7 - 0.0 - - - - - - -
05/04:30pm 30.8 N 9 14 1005.7 - 0.0 - - - - - - -
05/04:00pm 31.0 NNW 8 13 1005.6 - 0.0 - - - - - - -
05/03:30pm 31.2 N 8 15 1005.6 - 0.0 - - - - - - -
05/03:00pm 31.5 N 9 13 1005.5 - 0.0 - - - - - - -
05/02:30pm 32.0 N 9 16 1005.8 - 0.0 - - - - - - -
05/02:00pm 32.5 N 8 11 1006.4 - 0.0 - - - - - - -
05/01:30pm 33.1 ENE 6 9 1007.0 - 0.0 - - - - - - -
05/01:00pm 32.6 ENE 7 10 1007.6 - 0.0 - - - - - - -
05/12:30pm 32.0 E 6 10 1007.9 - 0.0 - - - - - - -
05/12:00pm 31.8 ENE 7 10 1008.3 - 0.0 - - - - - - -
05/11:30am 31.6 ESE 7 9 1008.8 - 0.0 - - - - - - -
05/11:00am 31.5 ENE 5 10 1009.0 - 0.0 - - - - - - -
05/10:30am 30.9 NE 2 5 1009.4 - 0.0 - - - - - - -
05/10:00am 30.5 SE 4 7 1009.6 - 0.0 - - - - - - -
05/09:30am 29.5 ESE 6 8 1009.6 - 0.0 - - - - - - -
05/09:00am 29.2 ESE 4 7 1009.5 - 0.4 - - - - - - -
05/08:30am 28.7 SE 4 5 1009.4 - 0.4 - - - - - - -
05/08:00am 27.4 S 3 4 1009.2 - 0.4 - - - - - - -
05/07:30am 26.1 SW 1 3 1008.9 - 0.4 - - - - - - -
05/07:00am 25.6 SSW 1 4 1008.6 - 0.4 - - - - - - -
05/06:30am 25.5 SSW 3 4 1008.4 - 0.4 - - - - - - -
05/06:00am 25.2 SW 4 4 1007.9 - 0.4 - - - - - - -
05/05:30am 25.4 CALM 0 0 1007.7 - 0.4 - - - - - - -
05/05:00am 25.5 CALM 0 0 1007.4 - 0.4 - - - - - - -
05/04:30am 25.4 CALM 0 0 1007.3 - 0.4 - - - - - - -
05/04:00am 25.7 S 3 4 1007.4 - 0.4 - - - - - - -
05/03:30am 25.6 S 3 4 1007.7 - 0.4 - - - - - - -
05/03:00am 25.7 CALM 0 0 1007.6 - 0.4 - - - - - - -
05/02:30am 25.8 CALM 0 0 1007.9 - 0.4 - - - - - - -
05/02:00am 25.9 CALM 0 0 1008.2 - 0.4 - - - - - - -
05/01:30am 26.0 CALM 0 0 1008.5 - 0.4 - - - - - - -
05/01:00am 26.1 CALM 0 0 1008.9 - 0.4 - - - - - - -
05/12:30am 25.9 S 1 4 1009.2 - 0.4 - - - - - - -
05/12:00am 26.1 CALM 0 0 1009.3 - 0.4 - - - - - - -
 
Date/Time
CST
Temp

°C
Wind Pressure Rain
since 9am
mm
Weather Cloud Vis
km
Sea
Height
m
Swell
Dir
 
Speed
knots
Gust
knots
hPa Trend Height
m
Period
s
Dir
04/11:30pm 26.5 CALM 0 3 1009.5 - 0.4 - - - - - - -
04/11:00pm 26.5 CALM 0 3 1009.7 - 0.4 - - - - - - -
04/10:30pm 26.2 ENE 4 6 1009.7 - 0.4 - - - - - - -
04/10:00pm 26.1 E 5 9 1009.8 - 0.4 - - - - - - -
04/09:30pm 27.2 SE 6 7 1009.6 - 0.0 - - - - - - -
04/09:00pm 27.7 SSE 8 12 1009.1 - 0.0 - - - - - - -
04/08:30pm 28.8 N 4 6 1008.9 - 0.0 - - - - - - -
04/08:00pm 28.6 NNW 4 6 1008.1 - 0.0 - - - - - - -
04/07:30pm 28.8 NNW 3 5 1008.1 - 0.0 - - - - - - -
04/07:00pm 28.9 NNW 6 8 1007.3 - 0.0 - - - - - - -
04/06:30pm 29.4 NW 5 9 1006.9 - 0.0 - - - - - - -
04/06:00pm 29.9 NNW 6 9 1006.4 - 0.0 - - - - - - -
04/05:30pm 30.5 NW 5 8 1006.3 - 0.0 - - - - - - -
04/05:00pm 30.8 NW 6 12 1006.7 - 0.0 - - - - - - -
04/04:30pm 30.7 N 7 10 1006.4 - 0.0 - - - - - - -
04/04:00pm 31.3 N 7 11 1006.4 - 0.0 - - - - - - -
04/03:30pm 30.7 N 9 14 1006.3 - 0.0 - - - - - - -
04/03:00pm 31.5 N 8 12 1006.1 - 0.0 - - - - - - -
04/02:30pm 31.7 N 8 11 1006.2 - 0.0 - - - - - - -
04/02:00pm 31.3 NNE 7 11 1006.8 - 0.0 - - - - - - -
04/01:30pm 31.2 N 8 12 1006.9 - 0.0 - - - - - - -
04/01:00pm 31.5 ENE 6 11 1007.9 - 0.0 - - - - - - -
04/12:30pm 32.3 E 6 11 1008.4 - 0.0 - - - - - - -
04/12:00pm 31.2 NE 6 10 1008.8 - 0.0 - - - - - - -
04/11:30am 31.1 ENE 6 10 1009.2 - 0.0 - - - - - - -
04/11:00am 30.8 E 8 10 1009.6 - 0.0 - - - - - - -
04/10:30am 31.2 E 7 9 1009.5 - 0.0 - - - - - - -
04/10:00am 31.0 E 5 7 1009.2 - 0.0 - - - - - - -
04/09:30am 29.7 SW 2 3 1009.0 - 0.0 - - - - - - -
04/09:00am 28.8 SSW 2 4 1009.0 - 6.2 - - - - - - -
04/08:30am 27.8 SSE 1 4 1009.0 - 6.2 - - - - - - -
04/08:00am 27.0 S 4 6 1008.5 - 6.2 - - - - - - -
04/07:30am 26.3 SSE 3 5 1008.4 - 6.2 - - - - - - -
04/07:00am 25.8 SSE 4 5 1007.9 - 6.2 - - - - - - -
04/06:30am 25.5 S 2 5 1007.6 - 6.2 - - - - - - -
04/06:00am 25.4 SSW 1 3 1007.4 - 6.2 - - - - - - -
04/05:30am 25.5 W 2 3 1007.1 - 6.2 - - - - - - -
04/05:00am 25.7 SW 3 5 1007.1 - 6.2 - - - - - - -
04/04:30am 25.6 CALM 0 0 1006.8 - 6.2 - - - - - - -
04/04:00am 25.7 CALM 0 0 1006.8 - 6.2 - - - - - - -
04/03:30am 25.5 CALM 0 0 1006.6 - 6.0 - - - - - - -
04/03:00am 25.4 CALM 0 0 1006.3 - 6.0 - - - - - - -
04/02:30am 25.6 CALM 0 0 1006.7 - 6.0 - - - - - - -
04/02:00am 25.8 N 1 3 1006.9 - 6.0 - - - - - - -
04/01:30am 26.1 CALM 0 0 1007.1 - 6.0 - - - - - - -
04/01:00am 25.9 N 2 4 1007.3 - 6.0 - - - - - - -
04/12:30am 26.2 CALM 0 0 1007.9 - 6.0 - - - - - - -
04/12:00am 26.2 CALM 0 0 1008.1 - 6.0 - - - - - - -
 
Date/Time
CST
Temp

°C
Wind Pressure Rain
since 9am
mm
Weather Cloud Vis
km
Sea
Height
m
Swell
Dir
 
Speed
knots
Gust
knots
hPa Trend Height
m
Period
s
Dir
03/11:30pm 26.4 CALM 0 0 1008.4 - 6.0 - - - - - - -
03/11:00pm 26.4 CALM 0 0 1008.4 - 6.0 - - - - - - -
03/10:30pm 26.5 CALM 0 0 1008.5 - 6.0 - - - - - - -
03/10:00pm 26.6 CALM 0 0 1008.3 - 6.0 - - - - - - -
03/09:30pm 26.8 CALM 0 0 1007.9 - 6.0 - - - - - - -
03/09:00pm 26.7 NNW 3 4 1007.4 - 6.0 - - - - - - -

Other Formats:

Comma delimited format used in spreadsheet applications
http://www.bom.gov.au/fwo/IDD60701/IDD60701.94140.axf

JavaScript Object Notation format (JSON) in row-major order
http://www.bom.gov.au/fwo/IDD60701/IDD60701.94140.json